createdAt,value
2022-12-31T00:01:49.624Z,59.72
2022-12-31T00:04:16.669Z,60.20
2022-12-31T00:06:43.358Z,60.16
2022-12-31T00:09:10.429Z,59.59
2022-12-31T00:11:37.707Z,59.61
2022-12-31T00:14:05.076Z,59.78
2022-12-31T00:16:36.518Z,59.51
2022-12-31T00:19:04.669Z,59.52
2022-12-31T00:21:32.644Z,59.96
2022-12-31T00:23:59.716Z,59.82
2022-12-31T00:26:28.453Z,59.82
2022-12-31T00:28:56.182Z,59.39
2022-12-31T00:31:25.018Z,59.59
2022-12-31T00:33:51.891Z,59.65
2022-12-31T00:36:24.146Z,59.29
2022-12-31T00:38:52.478Z,59.53
2022-12-31T00:41:20.474Z,59.53
2022-12-31T00:43:47.943Z,59.55
2022-12-31T00:46:15.387Z,59.41
2022-12-31T00:48:42.817Z,59.53
2022-12-31T00:51:11.895Z,59.41
2022-12-31T00:53:39.085Z,59.06
2022-12-31T00:56:08.712Z,59.32
2022-12-31T00:58:35.541Z,59.36
2022-12-31T01:01:13.425Z,59.49
2022-12-31T01:03:40.241Z,58.93
2022-12-31T01:06:07.318Z,59.17
2022-12-31T01:08:34.274Z,59.11
2022-12-31T01:11:19.876Z,59.05
2022-12-31T01:13:50.358Z,59.23
2022-12-31T01:16:17.913Z,59.05
2022-12-31T01:18:44.629Z,59.19
2022-12-31T01:21:12.533Z,58.95
2022-12-31T01:23:39.532Z,58.85
2022-12-31T01:26:08.476Z,59.21
2022-12-31T01:28:35.285Z,58.76
2022-12-31T01:31:06.874Z,59.11
2022-12-31T01:33:34.223Z,59.16
2022-12-31T01:36:08.857Z,58.99
2022-12-31T01:38:36.148Z,58.69
2022-12-31T01:41:03.720Z,59.27
2022-12-31T01:43:50.050Z,59.19
2022-12-31T01:46:24.157Z,59.23
2022-12-31T01:48:53.417Z,58.78
2022-12-31T01:51:20.687Z,58.77
2022-12-31T01:53:47.958Z,58.81
2022-12-31T01:56:14.732Z,59.02
2022-12-31T01:58:44.551Z,59.04
2022-12-31T02:01:14.862Z,58.81
2022-12-31T02:03:41.744Z,58.66
2022-12-31T02:06:18.629Z,59.01
2022-12-31T02:08:45.380Z,58.99
2022-12-31T02:11:36.510Z,59.20
2022-12-31T02:14:14.129Z,58.83
2022-12-31T02:16:45.528Z,58.91
2022-12-31T02:19:43.225Z,59.13
2022-12-31T02:22:25.010Z,59.10
2022-12-31T02:24:57.595Z,59.09
2022-12-31T02:27:53.602Z,58.93
2022-12-31T02:30:22.168Z,59.05
2022-12-31T02:32:54.923Z,59.04
2022-12-31T02:35:32.648Z,58.92
2022-12-31T02:38:20.291Z,59.10
2022-12-31T02:40:47.904Z,58.77
2022-12-31T02:43:14.780Z,59.08
2022-12-31T02:45:44.900Z,58.93
2022-12-31T02:48:26.845Z,58.80
2022-12-31T02:51:25.187Z,59.22
2022-12-31T02:54:07.219Z,58.82
2022-12-31T02:56:52.147Z,59.18
2022-12-31T02:59:47.220Z,59.20
2022-12-31T03:02:16.858Z,59.25
2022-12-31T03:04:51.030Z,59.22
2022-12-31T03:07:32.668Z,58.71
2022-12-31T03:10:01.050Z,58.63
2022-12-31T03:12:48.998Z,58.84
2022-12-31T03:15:21.800Z,59.13
2022-12-31T03:17:52.990Z,58.77
2022-12-31T03:20:39.156Z,58.70
2022-12-31T03:23:08.056Z,58.97
2022-12-31T03:25:35.520Z,58.72
2022-12-31T03:28:04.906Z,58.83
2022-12-31T03:30:32.418Z,58.60
2022-12-31T03:33:00.247Z,58.55
2022-12-31T03:35:28.518Z,58.57
2022-12-31T03:37:56.527Z,58.53
2022-12-31T03:40:25.224Z,58.51
2022-12-31T03:42:58.119Z,58.85
2022-12-31T03:45:26.906Z,58.88
2022-12-31T03:47:53.680Z,58.55
2022-12-31T03:50:22.315Z,58.71
2022-12-31T03:52:49.040Z,58.42
2022-12-31T03:55:16.035Z,58.25
2022-12-31T03:57:43.188Z,58.30
2022-12-31T04:00:13.326Z,58.30
2022-12-31T04:02:40.777Z,58.63
2022-12-31T04:05:08.285Z,58.12
2022-12-31T04:07:35.213Z,58.24
2022-12-31T04:10:03.271Z,58.15
2022-12-31T04:12:30.036Z,58.54
2022-12-31T04:14:56.825Z,58.16
2022-12-31T04:17:23.586Z,58.51
2022-12-31T04:19:55.965Z,58.43
2022-12-31T04:22:24.132Z,58.43
2022-12-31T04:24:50.852Z,58.10
2022-12-31T04:27:17.583Z,58.24
2022-12-31T04:29:44.266Z,58.34
2022-12-31T04:32:11.138Z,58.30
2022-12-31T04:34:37.865Z,58.29
2022-12-31T04:37:04.651Z,57.85
2022-12-31T04:39:31.357Z,58.24
2022-12-31T04:41:58.120Z,58.19
2022-12-31T04:44:24.857Z,57.94
2022-12-31T04:46:51.570Z,58.16
2022-12-31T04:49:18.269Z,58.13
2022-12-31T04:51:45.083Z,57.80
2022-12-31T04:54:11.758Z,57.98
2022-12-31T04:56:38.591Z,58.07
2022-12-31T04:59:05.697Z,58.04
2022-12-31T05:01:33.505Z,57.74
2022-12-31T05:04:00.455Z,57.82
2022-12-31T05:06:27.332Z,58.01
2022-12-31T05:08:54.313Z,57.94
2022-12-31T05:11:21.131Z,57.94
2022-12-31T05:13:48.104Z,57.81
2022-12-31T05:16:14.913Z,57.60
2022-12-31T05:18:41.743Z,57.77
2022-12-31T05:21:08.532Z,57.78
2022-12-31T05:23:35.325Z,57.76
2022-12-31T05:26:02.187Z,57.47
2022-12-31T05:28:29.073Z,57.42
2022-12-31T05:30:55.965Z,57.55
2022-12-31T05:33:23.172Z,57.22
2022-12-31T05:35:50.091Z,57.18
2022-12-31T05:38:16.903Z,57.11
2022-12-31T05:40:43.642Z,57.58
2022-12-31T05:43:10.439Z,57.07
2022-12-31T05:45:37.208Z,57.44
2022-12-31T05:48:04.132Z,57.16
2022-12-31T05:50:30.904Z,56.96
2022-12-31T05:53:04.127Z,57.25
2022-12-31T05:55:30.996Z,56.85
2022-12-31T05:57:57.900Z,56.97
2022-12-31T06:00:24.788Z,57.24
2022-12-31T06:02:51.575Z,57.26
2022-12-31T06:05:24.152Z,56.85
2022-12-31T06:07:52.778Z,56.79
2022-12-31T06:10:19.495Z,56.84
2022-12-31T06:12:46.297Z,56.80
2022-12-31T06:15:13.046Z,56.65
2022-12-31T06:17:39.818Z,56.97
2022-12-31T06:20:12.508Z,57.03
2022-12-31T06:22:40.080Z,56.96
2022-12-31T06:25:07.187Z,56.96
2022-12-31T06:27:33.899Z,56.87
2022-12-31T06:30:00.602Z,56.42
2022-12-31T06:32:27.401Z,56.63
2022-12-31T06:34:54.072Z,56.51
2022-12-31T06:37:20.830Z,56.49
2022-12-31T06:39:47.707Z,56.64
2022-12-31T06:42:14.480Z,56.34
2022-12-31T06:44:41.192Z,56.58
2022-12-31T06:47:07.972Z,56.63
2022-12-31T06:49:34.698Z,56.15
2022-12-31T06:52:01.525Z,56.72
2022-12-31T06:54:28.208Z,56.07
2022-12-31T06:56:55.362Z,55.80
2022-12-31T06:59:27.980Z,55.58
2022-12-31T07:02:07.768Z,55.53
2022-12-31T07:04:37.614Z,54.78
2022-12-31T07:07:35.408Z,54.88
2022-12-31T07:10:29.712Z,55.05
2022-12-31T07:13:08.975Z,54.81
2022-12-31T07:15:51.688Z,54.70
2022-12-31T07:18:18.453Z,54.39
2022-12-31T07:20:49.112Z,54.53
2022-12-31T07:23:16.639Z,54.22
2022-12-31T07:25:50.988Z,53.92
2022-12-31T07:28:21.120Z,54.12
2022-12-31T07:31:09.041Z,53.89
2022-12-31T07:34:06.765Z,53.96
2022-12-31T07:36:45.970Z,54.05
2022-12-31T07:39:26.850Z,53.84
2022-12-31T07:42:43.269Z,53.65
2022-12-31T07:45:21.080Z,53.74
2022-12-31T07:47:48.201Z,53.45
2022-12-31T07:50:17.448Z,53.67
2022-12-31T07:52:52.237Z,53.28
2022-12-31T07:55:23.126Z,53.14
2022-12-31T07:58:01.456Z,53.45
2022-12-31T08:00:29.640Z,53.26
2022-12-31T08:03:04.794Z,53.13
2022-12-31T08:06:00.447Z,53.06
2022-12-31T08:09:08.235Z,53.29
2022-12-31T08:11:41.030Z,53.11
2022-12-31T08:14:12.476Z,52.69
2022-12-31T08:16:39.561Z,53.06
2022-12-31T08:19:06.590Z,52.57
2022-12-31T08:21:54.233Z,52.82
2022-12-31T08:24:30.155Z,52.62
2022-12-31T08:27:05.745Z,52.60
2022-12-31T08:30:02.504Z,53.07
2022-12-31T08:32:40.031Z,52.99
2022-12-31T08:35:43.864Z,52.99
2022-12-31T08:38:48.152Z,52.65
2022-12-31T08:41:55.049Z,52.71
2022-12-31T08:44:48.586Z,52.74
2022-12-31T08:47:26.591Z,52.78
2022-12-31T08:50:00.292Z,52.34
2022-12-31T08:52:33.113Z,52.29
2022-12-31T08:55:01.374Z,52.12
2022-12-31T08:57:38.144Z,52.50
2022-12-31T09:00:21.418Z,52.53
2022-12-31T09:03:12.776Z,52.03
2022-12-31T09:06:15.823Z,52.25
2022-12-31T09:09:04.898Z,52.58
2022-12-31T09:12:01.692Z,52.07
2022-12-31T09:14:47.409Z,51.83
2022-12-31T09:17:29.648Z,51.89
2022-12-31T09:19:56.840Z,51.59
2022-12-31T09:22:23.945Z,51.59
2022-12-31T09:24:51.037Z,51.33
2022-12-31T09:27:30.461Z,51.76
2022-12-31T09:30:12.797Z,51.45
2022-12-31T09:33:01.081Z,51.00
2022-12-31T09:35:42.174Z,51.26
2022-12-31T09:38:19.911Z,51.10
2022-12-31T09:40:46.615Z,50.90
2022-12-31T09:43:38.222Z,50.72
2022-12-31T09:46:53.972Z,50.89
2022-12-31T09:49:58.163Z,50.96
2022-12-31T09:52:58.725Z,50.87
2022-12-31T09:56:04.218Z,50.79
2022-12-31T09:58:55.007Z,50.62
2022-12-31T10:01:24.877Z,50.35
2022-12-31T10:04:06.792Z,50.31
2022-12-31T10:07:12.089Z,50.17
2022-12-31T10:10:03.653Z,50.12
2022-12-31T10:12:59.196Z,50.18
2022-12-31T10:16:10.781Z,50.02
2022-12-31T10:19:00.772Z,49.68
2022-12-31T10:21:52.255Z,49.76
2022-12-31T10:24:27.563Z,49.51
2022-12-31T10:27:07.495Z,49.42
2022-12-31T10:29:57.078Z,49.43
2022-12-31T10:32:31.577Z,49.62
2022-12-31T10:35:12.862Z,49.59
2022-12-31T10:37:58.276Z,49.18
2022-12-31T10:40:49.823Z,49.54
2022-12-31T10:43:31.335Z,49.06
2022-12-31T10:46:39.104Z,49.22
2022-12-31T10:49:24.303Z,49.35
2022-12-31T10:52:23.205Z,49.28
2022-12-31T10:55:08.093Z,48.81
2022-12-31T10:58:13.553Z,48.79
2022-12-31T11:00:51.015Z,48.84
2022-12-31T11:03:29.488Z,48.49
2022-12-31T11:05:59.319Z,48.07
2022-12-31T11:09:00.159Z,48.57
2022-12-31T11:11:43.493Z,48.09
2022-12-31T11:14:48.652Z,48.40
2022-12-31T11:17:28.736Z,47.88
2022-12-31T11:20:10.761Z,48.25
2022-12-31T11:22:48.626Z,47.75
2022-12-31T11:25:30.223Z,47.43
2022-12-31T11:28:03.406Z,47.61
2022-12-31T11:30:40.303Z,47.57
2022-12-31T11:33:56.227Z,47.63
2022-12-31T11:36:45.217Z,46.87
2022-12-31T11:39:38.968Z,47.27
2022-12-31T11:42:57.872Z,47.13
2022-12-31T11:45:37.920Z,47.10
2022-12-31T11:51:20.891Z,46.53
2022-12-31T11:54:08.335Z,46.41
2022-12-31T11:56:38.977Z,46.30
2022-12-31T11:59:18.593Z,46.18
2022-12-31T12:01:56.284Z,45.97
2022-12-31T12:04:23.163Z,45.58
2022-12-31T12:06:50.247Z,45.62
2022-12-31T12:09:26.565Z,45.51
2022-12-31T12:12:05.774Z,45.35
2022-12-31T12:14:34.074Z,45.39
2022-12-31T12:17:05.235Z,45.49
2022-12-31T12:19:34.621Z,45.37
2022-12-31T12:22:11.286Z,45.12
2022-12-31T12:24:38.233Z,44.60
2022-12-31T12:27:05.144Z,44.85
2022-12-31T12:29:35.705Z,44.82
2022-12-31T12:32:25.414Z,45.09
2022-12-31T12:34:52.428Z,45.11
2022-12-31T12:37:25.353Z,44.71
2022-12-31T12:40:00.920Z,45.23
2022-12-31T12:42:28.588Z,44.94
2022-12-31T12:45:15.322Z,44.96
2022-12-31T12:47:46.507Z,44.51
2022-12-31T12:50:25.783Z,44.66
2022-12-31T12:53:11.158Z,44.71
2022-12-31T12:55:46.813Z,45.10
2022-12-31T12:58:51.108Z,44.87
2022-12-31T13:01:50.181Z,45.38
2022-12-31T13:04:34.602Z,44.87
2022-12-31T13:07:07.755Z,45.05
2022-12-31T13:09:34.525Z,45.26
2022-12-31T13:12:13.823Z,44.94
2022-12-31T13:14:40.565Z,45.26
2022-12-31T13:17:31.592Z,45.49
2022-12-31T13:20:13.366Z,45.22
2022-12-31T13:23:15.087Z,45.24
2022-12-31T13:26:00.735Z,45.13
2022-12-31T13:28:28.475Z,45.41
2022-12-31T13:31:06.523Z,45.40
2022-12-31T13:33:38.693Z,45.53
2022-12-31T13:36:10.897Z,45.44
2022-12-31T13:38:40.562Z,45.64
2022-12-31T13:41:34.450Z,45.73
2022-12-31T13:44:34.967Z,45.82
2022-12-31T13:47:13.550Z,45.75
2022-12-31T13:49:47.881Z,45.79
2022-12-31T13:52:33.584Z,45.58
2022-12-31T13:55:18.409Z,45.88
2022-12-31T13:58:01.449Z,45.69
2022-12-31T14:00:40.372Z,46.00
2022-12-31T14:03:25.327Z,45.91
2022-12-31T14:05:56.796Z,45.80
2022-12-31T14:08:23.655Z,45.84
2022-12-31T14:11:01.403Z,45.53
2022-12-31T14:13:37.191Z,45.55
2022-12-31T14:16:03.962Z,45.57
2022-12-31T14:18:47.602Z,45.95
2022-12-31T14:21:27.880Z,45.92
2022-12-31T14:24:10.056Z,45.66
2022-12-31T14:26:44.225Z,45.90
2022-12-31T14:29:11.117Z,45.86
2022-12-31T14:31:50.087Z,45.62
2022-12-31T14:34:42.033Z,45.60
2022-12-31T14:37:13.953Z,45.47
2022-12-31T14:39:46.871Z,45.59
2022-12-31T14:42:31.047Z,45.57
2022-12-31T14:45:17.314Z,45.99
2022-12-31T14:47:58.153Z,45.87
2022-12-31T14:50:29.332Z,46.09
2022-12-31T14:53:25.777Z,45.67
2022-12-31T14:56:02.575Z,46.07
2022-12-31T14:58:35.347Z,46.13
2022-12-31T15:01:15.325Z,45.72
2022-12-31T15:03:45.888Z,45.59
2022-12-31T15:06:31.814Z,45.92
2022-12-31T15:09:08.738Z,45.69
2022-12-31T15:11:57.471Z,45.94
2022-12-31T15:14:37.379Z,46.32
2022-12-31T15:17:20.227Z,45.82
2022-12-31T15:20:16.642Z,46.33
2022-12-31T15:22:45.952Z,46.21
2022-12-31T15:25:40.060Z,46.63
2022-12-31T15:28:34.313Z,46.40
2022-12-31T15:31:22.542Z,46.38
2022-12-31T15:34:07.584Z,46.88
2022-12-31T15:36:39.020Z,46.81
2022-12-31T15:39:11.426Z,46.86
2022-12-31T15:42:10.215Z,46.72
2022-12-31T15:44:51.469Z,46.85
2022-12-31T15:47:29.467Z,46.93
2022-12-31T15:49:57.718Z,46.55
2022-12-31T15:52:52.710Z,47.33
2022-12-31T15:55:22.482Z,47.29
2022-12-31T15:57:49.569Z,47.45
2022-12-31T16:00:20.411Z,47.56
2022-12-31T16:02:56.157Z,47.46
2022-12-31T16:05:25.702Z,47.35
2022-12-31T16:07:59.555Z,47.69
2022-12-31T16:10:31.351Z,47.41
2022-12-31T16:12:58.939Z,47.42
2022-12-31T16:15:28.280Z,47.84
2022-12-31T16:18:02.810Z,47.48
2022-12-31T16:20:31.361Z,47.61
2022-12-31T16:23:00.140Z,47.43
2022-12-31T16:25:31.128Z,47.81
2022-12-31T16:27:58.870Z,47.74
2022-12-31T16:30:30.647Z,47.69
2022-12-31T16:33:04.190Z,47.82
2022-12-31T16:35:37.390Z,47.51
2022-12-31T16:38:15.058Z,47.86
2022-12-31T16:41:01.742Z,47.49
2022-12-31T16:43:28.449Z,47.53
2022-12-31T16:45:58.047Z,47.89
2022-12-31T16:48:25.200Z,47.61
2022-12-31T16:50:53.926Z,47.99
2022-12-31T16:53:24.913Z,47.94
2022-12-31T16:56:03.423Z,47.82
2022-12-31T16:58:33.025Z,48.25
2022-12-31T17:01:17.180Z,47.93
2022-12-31T17:03:47.643Z,47.96
2022-12-31T17:06:16.376Z,48.15
2022-12-31T17:09:00.938Z,48.17
2022-12-31T17:11:30.561Z,48.18
2022-12-31T17:14:18.948Z,48.33
2022-12-31T17:17:02.661Z,48.27
2022-12-31T17:19:40.874Z,48.30
2022-12-31T17:22:13.644Z,47.89
2022-12-31T17:24:40.754Z,48.36
2022-12-31T17:27:09.167Z,48.00
2022-12-31T17:29:36.028Z,48.02
2022-12-31T17:32:06.649Z,47.95
2022-12-31T17:34:36.902Z,48.06
2022-12-31T17:37:18.395Z,48.26
2022-12-31T17:39:45.446Z,48.17
2022-12-31T17:42:13.735Z,48.56
2022-12-31T17:44:42.811Z,48.59
2022-12-31T17:47:13.898Z,48.18
2022-12-31T17:49:44.305Z,48.63
2022-12-31T17:52:15.192Z,48.43
2022-12-31T17:54:42.617Z,48.10
2022-12-31T17:57:24.736Z,48.55
2022-12-31T17:59:51.768Z,48.19
2022-12-31T18:02:18.707Z,48.41
2022-12-31T18:04:46.068Z,48.27
2022-12-31T18:07:12.817Z,48.58
2022-12-31T18:09:39.495Z,48.62
2022-12-31T18:12:06.924Z,48.08
2022-12-31T18:14:33.756Z,48.62
2022-12-31T18:17:00.821Z,48.56
2022-12-31T18:20:03.088Z,48.13
2022-12-31T18:22:16.121Z,48.16
2022-12-31T18:24:43.475Z,48.60
2022-12-31T18:27:17.665Z,48.56
2022-12-31T18:29:50.331Z,48.37
2022-12-31T18:32:38.879Z,48.45
2022-12-31T18:35:33.291Z,48.20
2022-12-31T18:38:18.772Z,48.14
2022-12-31T18:40:58.848Z,48.31
2022-12-31T18:43:26.030Z,48.13
2022-12-31T18:45:53.180Z,48.71
2022-12-31T18:48:19.992Z,48.28
2022-12-31T18:50:47.822Z,48.36
2022-12-31T18:53:19.863Z,48.40
2022-12-31T18:55:53.216Z,48.36
2022-12-31T18:58:20.555Z,48.34
2022-12-31T19:00:48.437Z,48.85
2022-12-31T19:03:18.274Z,48.36
2022-12-31T19:05:49.045Z,48.83
2022-12-31T19:08:25.577Z,48.50
2022-12-31T19:10:53.515Z,48.76
2022-12-31T19:13:20.261Z,48.54
2022-12-31T19:15:51.969Z,48.86
2022-12-31T19:18:19.223Z,48.86
2022-12-31T19:20:46.017Z,48.89
2022-12-31T19:23:21.551Z,48.68
2022-12-31T19:25:49.566Z,48.82
2022-12-31T19:28:18.559Z,48.50
2022-12-31T19:30:46.333Z,48.92
2022-12-31T19:33:13.525Z,49.00
2022-12-31T19:35:41.570Z,48.65
2022-12-31T19:38:26.874Z,49.13
2022-12-31T19:40:54.049Z,48.72
2022-12-31T19:43:22.509Z,48.91
2022-12-31T19:45:50.251Z,48.72
2022-12-31T19:48:20.711Z,48.87
2022-12-31T19:50:48.242Z,48.50
2022-12-31T19:53:18.837Z,48.69
2022-12-31T19:55:45.619Z,48.55
2022-12-31T19:58:19.476Z,48.71
2022-12-31T20:00:54.516Z,48.61
2022-12-31T20:03:24.447Z,49.13
2022-12-31T20:05:51.304Z,48.88
2022-12-31T20:08:20.326Z,49.08
2022-12-31T20:10:57.753Z,48.78
2022-12-31T20:13:34.385Z,49.07
2022-12-31T20:16:01.117Z,49.06
2022-12-31T20:18:36.750Z,49.06
2022-12-31T20:21:05.371Z,48.75
2022-12-31T20:23:35.181Z,49.06
2022-12-31T20:26:02.229Z,49.00
2022-12-31T20:28:29.813Z,49.03
2022-12-31T20:30:56.637Z,48.92
2022-12-31T20:33:23.929Z,49.11
2022-12-31T20:35:51.199Z,48.81
2022-12-31T20:38:17.846Z,48.80
2022-12-31T20:40:46.912Z,49.26
2022-12-31T20:43:14.306Z,49.11
2022-12-31T20:45:41.571Z,48.83
2022-12-31T20:48:08.405Z,48.77
2022-12-31T20:50:35.277Z,48.84
2022-12-31T20:53:02.437Z,49.08
2022-12-31T20:55:30.767Z,49.17
2022-12-31T20:57:57.610Z,49.09
2022-12-31T21:00:24.279Z,48.87
2022-12-31T21:02:57.911Z,48.80
2022-12-31T21:05:31.121Z,49.08
2022-12-31T21:07:57.874Z,48.49
2022-12-31T21:10:24.745Z,49.09
2022-12-31T21:12:54.674Z,49.08
2022-12-31T21:15:21.796Z,49.13
2022-12-31T21:17:51.632Z,48.98
2022-12-31T21:20:19.984Z,49.18
2022-12-31T21:22:51.966Z,48.80
2022-12-31T21:25:20.963Z,49.00
2022-12-31T21:27:47.680Z,49.05
2022-12-31T21:30:19.352Z,49.24
2022-12-31T21:32:46.716Z,48.97
2022-12-31T21:38:07.352Z,49.08
2022-12-31T21:40:34.480Z,49.16
2022-12-31T21:43:01.111Z,49.28
2022-12-31T21:45:28.011Z,49.24
2022-12-31T21:48:13.091Z,48.85
2022-12-31T21:50:39.912Z,49.23
2022-12-31T21:53:06.633Z,48.88
2022-12-31T21:55:52.263Z,48.88
2022-12-31T21:58:27.691Z,48.87
2022-12-31T22:01:15.117Z,48.97
2022-12-31T22:03:42.111Z,49.27
2022-12-31T22:06:22.378Z,49.15
2022-12-31T22:08:52.231Z,49.31
2022-12-31T22:11:20.969Z,48.89
2022-12-31T22:13:48.964Z,49.26
2022-12-31T22:16:17.199Z,49.42
2022-12-31T22:18:44.475Z,49.27
2022-12-31T22:21:18.726Z,49.11
2022-12-31T22:23:50.467Z,49.31
2022-12-31T22:26:18.383Z,49.43
2022-12-31T22:28:46.182Z,49.19
2022-12-31T22:31:14.569Z,49.33
2022-12-31T22:33:42.013Z,49.29
2022-12-31T22:36:12.682Z,49.10
2022-12-31T22:38:39.716Z,49.07
2022-12-31T22:41:09.536Z,49.15
2022-12-31T22:43:40.474Z,49.43
2022-12-31T22:46:12.553Z,49.36
2022-12-31T22:48:40.154Z,49.50
2022-12-31T22:51:07.112Z,49.56
2022-12-31T22:53:33.862Z,49.57
2022-12-31T22:56:00.821Z,49.34
2022-12-31T22:58:27.808Z,49.33
2022-12-31T23:00:54.469Z,49.09
2022-12-31T23:03:21.257Z,49.68
2022-12-31T23:05:52.521Z,49.13
2022-12-31T23:08:23.303Z,49.35
2022-12-31T23:10:59.732Z,49.24
2022-12-31T23:13:50.588Z,49.27
2022-12-31T23:16:37.500Z,49.18
2022-12-31T23:19:23.878Z,49.54
2022-12-31T23:22:09.162Z,49.58
2022-12-31T23:24:36.020Z,49.23
2022-12-31T23:27:03.001Z,49.25
2022-12-31T23:29:29.743Z,49.57
2022-12-31T23:31:56.800Z,49.32
2022-12-31T23:34:23.579Z,49.54
2022-12-31T23:36:50.296Z,49.17
2022-12-31T23:39:17.071Z,49.51
2022-12-31T23:41:43.736Z,49.24
2022-12-31T23:44:12.106Z,49.18
2022-12-31T23:46:39.429Z,49.55
2022-12-31T23:49:06.459Z,49.43
2022-12-31T23:51:33.278Z,49.43
2022-12-31T23:54:00.998Z,49.16
2022-12-31T23:56:27.636Z,49.45
2022-12-31T23:58:55.535Z,49.32
